• Join FlightAware (Why Join?)
  • Login
  • US Flag 
11:57AM EST


 

Airport Tracker/Info


-or-


 

Live Flight TrackerFlight Track Log ✈ N403S ✈ 28-Mar-2014 ✈ KRNT - KMSO

Flight Track Log - Related Links

Times and Time Zones

All times are in EDT time to prevent confusion due to time zone crossing. See the N403S flight status page for this flight to view local times or setup timezone preferences in your user account.

Time Position Orientation Groundspeed Altitude Reporting Facility
EDT Latitude Longitude Course Direction KTS MPH feet Rate Location/Type
03:40PM 47.4731 -122.2142 159° South 117 135 700  Level Seattle Center
03:41PM 47.4497 -122.2008 159° South 96 110 1,300 776 Climbing Seattle Center
03:42PM 47.4278 -122.1767 143° Southeast 94 108 2,200 874 Climbing Seattle Center
03:43PM 47.4158 -122.1597 136° Southeast 91 105 2,800 800 Climbing Seattle Center
03:43PM 47.4100 -122.1506 133° Southeast 87 100 3,000 787 Climbing Seattle Center
03:44PM 47.3992 -122.1336 133° Southeast 89 102 3,600 787 Climbing Seattle Center
03:44PM 47.4000 -122.1200 85° East 104 120 3,800 689 Climbing Seattle Center
03:45PM 47.4064 -122.0867 74° East 116 133 4,300 692 Climbing Seattle Center
03:46PM 47.4233 -122.0283 67° East 141 162 5,000 689 Climbing Seattle Center
03:47PM 47.4367 -121.9728 70° East 143 165 5,700 787 Climbing Seattle Center
03:48PM 47.4333 -121.9219 96° East 127 146 6,600 787 Climbing Seattle Center
03:49PM 47.4314 -121.8714 93° East 125 144 7,300 689 Climbing Seattle Center
03:50PM 47.4306 -121.8133 91° East 128 147 8,000 689 Climbing Seattle Center
03:51PM 47.4303 -121.7586 90° East 130 150 8,700 541 Climbing Seattle Center
03:52PM 47.4283 -121.6983 93° East 146 168 9,100 492 Climbing Seattle Center
03:53PM 47.4303 -121.6356 87° East 151 174 9,700 590 Climbing Seattle Center
03:54PM 47.4297 -121.5733 91° East 151 174 10,300 541 Climbing Seattle Center
03:55PM 47.4283 -121.5064 92° East 158 182 10,800 496 Climbing Seattle Center
03:56PM 47.4283 -121.4358 90° East 159 183 11,300 545 Climbing Seattle Center
03:57PM 47.4303 -121.3706 87° East 160 184 11,900 541 Climbing Seattle Center
03:58PM 47.4322 -121.3031 88° East 162 186 12,400 443 Climbing Seattle Center
03:59PM 47.4331 -121.2333 89° East 167 192 12,800 393 Climbing Seattle Center
04:00PM 47.4339 -121.1667 89° East 178 205 13,200 393 Climbing Seattle Center
04:01PM 47.4347 -121.0933 89° East 178 205 13,600 443 Climbing Seattle Center
04:02PM 47.4308 -121.0217 95° East 178 205 14,100 590 Climbing Seattle Center
04:03PM 47.4272 -120.9350 93° East 177 204 14,800 590 Climbing Seattle Center
04:04PM 47.4225 -120.8661 96° East 172 198 15,300 590 Climbing Seattle Center
04:05PM 47.4172 -120.8022 97° East 171 197 16,000 639 Climbing Seattle Center
04:06PM 47.4144 -120.7358 94° East 162 186 16,600 492 Climbing Seattle Center
04:07PM 47.4114 -120.6694 94° East 161 185 17,000 198 Climbing Seattle Center
04:08PM 47.4044 -120.5950 98° East 181 208 17,000  Level Seattle Center
04:09PM 47.3969 -120.5169 98° East 188 216 17,000  Level Seattle Center
04:10PM 47.3992 -120.4256 88° East 191 220 17,000  Level Seattle Center
04:11PM 47.4039 -120.3444 85° East 197 227 17,000  Level Seattle Center
04:12PM 47.4042 -120.2642 90° East 195 224 17,000  Level Seattle Center
04:13PM 47.4061 -120.1825 88° East 198 228 17,000  Level Seattle Center
04:14PM 47.4047 -120.0953 91° East 200 230 17,000  Level Seattle Center
04:15PM 47.4014 -120.0144 93° East 200 230 17,000  Level Seattle Center
04:16PM 47.3958 -119.9333 96° East 200 230 17,000  Level Seattle Center
04:17PM 47.3886 -119.8531 98° East 199 229 17,000  Level Seattle Center
04:18PM 47.3825 -119.7728 96° East 199 229 17,000  Level Seattle Center
04:19PM 47.3747 -119.6858 97° East 199 229 17,000  Level Seattle Center
04:20PM 47.3678 -119.6031 97° East 200 230 17,000  Level Seattle Center
04:21PM 47.3592 -119.5211 99° East 201 231 17,000  Level Seattle Center
04:22PM 47.3511 -119.4394 98° East 201 231 17,000  Level Seattle Center
04:23PM 47.3419 -119.3578 99° East 201 231 17,000  Level Seattle Center
04:24PM 47.3339 -119.2769 98° East 201 231 17,000  Level Seattle Center
04:25PM 47.3242 -119.1972 100° East 201 231 17,000  Level Seattle Center
04:26PM 47.3142 -119.1114 100° East 200 230 17,000  Level Seattle Center
04:27PM 47.3094 -119.0303 95° East 199 229 17,000  Level Seattle Center
04:28PM 47.3036 -118.9500 96° East 199 229 17,000  Level Seattle Center
04:29PM 47.2981 -118.8683 96° East 200 230 17,000  Level Seattle Center
04:30PM 47.2931 -118.7878 95° East 199 229 17,000  Level Seattle Center
04:31PM 47.2903 -118.6986 93° East 200 230 17,000  Level Seattle Center
04:32PM 47.2867 -118.6167 94° East 200 230 17,000  Level Seattle Center
04:33PM 47.2839 -118.5353 93° East 200 230 17,000  Level Seattle Center
04:34PM 47.2803 -118.4497 94° East 203 234 17,000  Level Seattle Center
04:35PM 47.2772 -118.3675 93° East 204 235 17,000  Level Seattle Center
04:36PM 47.2756 -118.2858 92° East 202 232 17,000  Level Seattle Center
04:38PM 47.2747 -118.1975 91° East 202 232 17,000  Level Seattle Center
04:39PM 47.2750 -118.1161 90° East 201 231 17,000  Level Seattle Center
04:40PM 47.2733 -118.0353 92° East 201 231 17,000  Level Seattle Center
04:41PM 47.2694 -117.9539 94° East 201 231 17,000  Level Seattle Center
04:42PM 47.2661 -117.8714 93° East 201 231 17,000  Level Seattle Center
04:43PM 47.2628 -117.7828 93° East 201 231 17,000  Level Seattle Center
04:44PM 47.2583 -117.6994 94° East 202 232 17,000  Level Seattle Center
04:45PM 47.2539 -117.6169 95° East 203 234 17,000  Level Seattle Center
04:46PM 47.2486 -117.5333 95° East 204 235 17,000  Level Seattle Center
04:47PM 47.2431 -117.4444 95° East 203 234 17,000  Level Seattle Center
04:48PM 47.2389 -117.3622 94° East 203 234 17,000 -49 Level Seattle Center
04:49PM 47.2339 -117.2806 95° East 203 234 16,900  Descending Seattle Center
04:50PM 47.2292 -117.1983 95° East 204 235 17,000 49 Climbing Seattle Center
04:51PM 47.2233 -117.1158 96° East 204 235 17,000  Level Seattle Center
04:52PM 47.2158 -117.0331 98° East 205 236 17,000  Level Seattle Center
04:53PM 47.2061 -116.9511 100° East 206 237 17,000  Level Seattle Center
04:54PM 47.1944 -116.8714 102° East 205 236 17,000 -49 Level Seattle Center
04:55PM 47.1839 -116.7914 101° East 204 235 16,900  Descending Seattle Center
04:56PM 47.1733 -116.7111 101° East 203 234 17,000 49 Climbing Seattle Center
04:57PM 47.1567 -116.6136 104° East 206 237 17,000  Level Seattle Center
04:58PM 47.1458 -116.5322 101° East 206 237 17,000  Level Seattle Center
04:59PM 47.1350 -116.4486 101° East 206 237 17,000  Level Seattle Center
05:00PM 47.1228 -116.3672 102° East 206 237 17,000 -49 Level Seattle Center
05:01PM 47.1133 -116.2836 99° East 206 237 16,900 -49 Descending Seattle Center
05:02PM 47.1039 -116.2019 100° East 206 237 16,900 49 Level Seattle Center
05:03PM 47.0939 -116.1211 100° East 205 236 17,000 49 Climbing Seattle Center
05:04PM 47.0867 -116.0383 97° East 205 236 17,000 -197 Level Seattle Center
05:05PM 47.0794 -115.9508 97° East 211 243 16,600 -443 Descending Seattle Center
05:06PM 47.0714 -115.8597 97° East 221 254 16,100 -393 Descending Seattle Center
05:07PM 47.0728 -115.7686 89° East 221 254 15,800 -443 Descending Seattle Center
05:08PM 47.0719 -115.6556 91° East 227 261 15,200 -471 Descending Seattle Center
05:09PM 47.0706 -115.6025 92° East 227 261 15,000 -408 Descending Salt Lake Center
05:10PM 47.0653 -115.5139 95° East 225 259 14,500 -532 Descending Salt Lake Center
05:11PM 47.0583 -115.4228 96° East 225 259 13,900 -629 Descending Salt Lake Center
05:12PM 47.0522 -115.3161 95° East 224 258 13,200 -488 Descending Salt Lake Center
05:13PM 47.0464 -115.2281 96° East 222 255 12,900 -518 Descending Salt Lake Center
05:14PM 47.0339 -115.1231 100° East 219 252 12,000 -691 Descending Seattle Center
05:15PM 47.0211 -115.0381 102° East 219 252 11,300 -492 Descending Seattle Center
05:16PM 47.0075 -114.9547 103° East 215 247 11,000 -148 Descending Seattle Center
05:17PM 46.9947 -114.8642 102° East 196 226 11,000  Level Seattle Center
05:18PM 46.9850 -114.7917 101° East 190 219 11,000 49 Level Seattle Center
05:19PM 46.9758 -114.7222 101° East 183 211 11,100 -246 Climbing Seattle Center
05:20PM 46.9658 -114.6483 101° East 181 208 10,500 -589 Descending Seattle Center
05:21PM 46.9594 -114.5722 97° East 195 224 10,000 -796 Descending Salt Lake Center
05:22PM 46.9611 -114.5000 88° East 182 209 9,000 -878 Descending Salt Lake Center
05:23PM 46.9608 -114.4267 90° East 171 197 8,200 -829 Descending Salt Lake Center
05:24PM 46.9672 -114.3558 82° East 172 198 7,300 -871 Descending Salt Lake Center
05:25PM 46.9700 -114.2886 87° East 171 197 6,400 -919 Descending Salt Lake Center
05:26PM 46.9703 -114.2172 90° East 166 191 5,400 -1,065 Descending Salt Lake Center
05:27PM 46.9547 -114.1556 110° East 162 186 4,200 -968 Descending Salt Lake Center
05:28PM 46.9258 -114.1089 132° Southeast 146 168 3,400 -774 Descending Salt Lake Center
05:30PM 46.9163 -114.0906 98° East  Level Estimated